DLH179 EDDN-LKPR
Flight info
| Callsign | DLH179 |
|---|---|
| Flight time | 0h 43m |
| Altitude | 21000 |
| Route | ERETO1G ERETO Z650 NOGRA N869 RONIG Z35 ODOMO DCT LOMKI |
| Aircraft | DH8D/M-SDE2E3FGRY/H |
Departure
| Time | 2026-05-04 14:47 |
|---|---|
| Airport | Nuremberg Airport (EDDN) |
Arrival
| Time | 2026-05-04 15:30 |
|---|---|
| Airport | Václav Havel Airport Prague (LKPR) |
| Time | Latitude | Longitude | Altitude | Speed | Heading |
|---|---|---|---|---|---|
| 2026-05-04 14:17 | 49.49482 | 11.08108 | 1030 ft | 0 kts | 191° |
| 2026-05-04 14:34 | 49.49482 | 11.08107 | 1031 ft | 0 kts | 191° |
| 2026-05-04 14:35 | 49.49490 | 11.08109 | 1031 ft | 2 kts | 186° |
| 2026-05-04 14:36 | 49.49505 | 11.08112 | 1031 ft | 2 kts | 188° |
| 2026-05-04 14:36 | 49.49520 | 11.08116 | 1030 ft | 2 kts | 188° |
| 2026-05-04 14:36 | 49.49535 | 11.08119 | 1030 ft | 2 kts | 188° |
| 2026-05-04 14:36 | 49.49547 | 11.08120 | 1030 ft | 1 kts | 154° |
| 2026-05-04 14:37 | 49.49554 | 11.08107 | 1030 ft | 1 kts | 98° |
| 2026-05-04 14:37 | 49.49556 | 11.08085 | 1031 ft | 2 kts | 98° |
| 2026-05-04 14:37 | 49.49558 | 11.08062 | 1031 ft | 2 kts | 98° |
| 2026-05-04 14:37 | 49.49560 | 11.08039 | 1031 ft | 2 kts | 98° |
| 2026-05-04 14:38 | 49.49562 | 11.08017 | 1031 ft | 2 kts | 98° |
| 2026-05-04 14:38 | 49.49563 | 11.08006 | 1031 ft | 0 kts | 98° |
| 2026-05-04 14:43 | 49.49563 | 11.08009 | 1031 ft | 0 kts | 98° |
| 2026-05-04 14:43 | 49.49561 | 11.08026 | 1031 ft | 2 kts | 97° |
| 2026-05-04 14:43 | 49.49559 | 11.08056 | 1031 ft | 3 kts | 96° |
| 2026-05-04 14:43 | 49.49557 | 11.08097 | 1031 ft | 4 kts | 94° |
| 2026-05-04 14:44 | 49.49555 | 11.08149 | 1031 ft | 5 kts | 96° |
| 2026-05-04 14:44 | 49.49548 | 11.08208 | 1031 ft | 5 kts | 102° |
| 2026-05-04 14:44 | 49.49538 | 11.08273 | 1031 ft | 6 kts | 103° |
| 2026-05-04 14:44 | 49.49545 | 11.08334 | 1032 ft | 5 kts | 39° |
| 2026-05-04 14:45 | 49.49571 | 11.08351 | 1033 ft | 2 kts | 15° |
| 2026-05-04 14:45 | 49.49614 | 11.08385 | 1034 ft | 11 kts | 39° |
| 2026-05-04 14:45 | 49.49677 | 11.08502 | 1037 ft | 17 kts | 49° |
| 2026-05-04 14:45 | 49.49744 | 11.08612 | 1041 ft | 0 kts | 35° |
| 2026-05-04 14:46 | 49.49747 | 11.08615 | 1041 ft | 2 kts | 31° |
| 2026-05-04 14:46 | 49.49783 | 11.08590 | 1041 ft | 10 kts | 297° |
| 2026-05-04 14:46 | 49.49812 | 11.08366 | 1037 ft | 55 kts | 279° |
| 2026-05-04 14:46 | 49.49922 | 11.07323 | 1027 ft | 135 kts | 281° |
| 2026-05-04 14:47 | 49.50121 | 11.05807 | 1319 ft | 159 kts | 279° |
| 2026-05-04 14:47 | 49.50325 | 11.03984 | 1576 ft | 183 kts | 281° |
| 2026-05-04 14:47 | 49.50577 | 11.01936 | 1979 ft | 206 kts | 280° |
| 2026-05-04 14:47 | 49.50779 | 10.99767 | 2619 ft | 213 kts | 278° |
| 2026-05-04 14:48 | 49.50976 | 10.97527 | 3251 ft | 215 kts | 278° |
| 2026-05-04 14:48 | 49.51199 | 10.95265 | 3880 ft | 218 kts | 282° |
| 2026-05-04 14:48 | 49.51923 | 10.93320 | 4428 ft | 219 kts | 322° |
| 2026-05-04 14:48 | 49.53217 | 10.92633 | 4997 ft | 217 kts | 355° |
| 2026-05-04 14:49 | 49.54734 | 10.92612 | 5645 ft | 217 kts | 360° |
| 2026-05-04 14:49 | 49.56237 | 10.92631 | 6278 ft | 219 kts | 360° |
| 2026-05-04 14:49 | 49.57766 | 10.92661 | 6917 ft | 224 kts | 360° |
| 2026-05-04 14:49 | 49.59334 | 10.92697 | 7556 ft | 230 kts | 360° |
| 2026-05-04 14:50 | 49.60951 | 10.92735 | 8199 ft | 237 kts | 359° |
| 2026-05-04 14:50 | 49.62610 | 10.92775 | 8843 ft | 241 kts | 359° |
| 2026-05-04 14:50 | 49.64393 | 10.92813 | 8789 ft | 275 kts | 359° |
| 2026-05-04 14:50 | 49.66350 | 10.92856 | 8839 ft | 293 kts | 359° |
| 2026-05-04 14:51 | 49.68378 | 10.92902 | 8833 ft | 288 kts | 359° |
| 2026-05-04 14:51 | 49.70320 | 10.93456 | 8811 ft | 286 kts | 24° |
| 2026-05-04 14:51 | 49.71926 | 10.95211 | 8839 ft | 280 kts | 39° |
| 2026-05-04 14:51 | 49.73390 | 10.97128 | 8833 ft | 276 kts | 40° |
| 2026-05-04 14:52 | 49.74836 | 10.99040 | 8833 ft | 274 kts | 40° |
| 2026-05-04 14:52 | 49.76283 | 11.00960 | 8835 ft | 272 kts | 40° |
| 2026-05-04 14:52 | 49.77722 | 11.02871 | 8833 ft | 270 kts | 40° |
| 2026-05-04 14:52 | 49.79122 | 11.04730 | 8850 ft | 268 kts | 40° |
| 2026-05-04 14:53 | 49.80509 | 11.06570 | 9147 ft | 254 kts | 39° |
| 2026-05-04 14:53 | 49.81882 | 11.08190 | 9510 ft | 241 kts | 37° |
| 2026-05-04 14:53 | 49.83118 | 11.09836 | 9876 ft | 228 kts | 41° |
| 2026-05-04 14:53 | 49.84142 | 11.11585 | 10230 ft | 214 kts | 59° |
| 2026-05-04 14:54 | 49.84776 | 11.13560 | 10593 ft | 204 kts | 66° |
| 2026-05-04 14:54 | 49.85386 | 11.15633 | 11019 ft | 222 kts | 66° |
| 2026-05-04 14:54 | 49.85927 | 11.17967 | 11452 ft | 239 kts | 78° |
| 2026-05-04 14:54 | 49.86240 | 11.20546 | 11883 ft | 255 kts | 82° |
| 2026-05-04 14:55 | 49.86553 | 11.23343 | 12316 ft | 269 kts | 81° |
| 2026-05-04 14:55 | 49.86886 | 11.26263 | 12737 ft | 281 kts | 81° |
| 2026-05-04 14:55 | 49.87234 | 11.29287 | 13140 ft | 291 kts | 81° |
| 2026-05-04 14:55 | 49.87595 | 11.32395 | 13545 ft | 299 kts | 81° |
| 2026-05-04 14:56 | 49.87964 | 11.35551 | 13945 ft | 306 kts | 81° |
| 2026-05-04 14:56 | 49.88347 | 11.38821 | 14342 ft | 312 kts | 81° |
| 2026-05-04 14:56 | 49.88739 | 11.42178 | 14752 ft | 317 kts | 81° |
| 2026-05-04 14:56 | 49.89131 | 11.45540 | 15150 ft | 321 kts | 81° |
| 2026-05-04 14:57 | 49.89531 | 11.48966 | 15542 ft | 325 kts | 81° |
| 2026-05-04 14:57 | 49.89932 | 11.52418 | 15950 ft | 328 kts | 81° |
| 2026-05-04 14:57 | 49.90338 | 11.55914 | 16361 ft | 330 kts | 81° |
| 2026-05-04 14:57 | 49.90741 | 11.59386 | 16758 ft | 331 kts | 81° |
| 2026-05-04 14:58 | 49.91150 | 11.62923 | 16796 ft | 347 kts | 81° |
| 2026-05-04 14:58 | 49.91573 | 11.66599 | 16794 ft | 348 kts | 81° |
| 2026-05-04 14:58 | 49.92003 | 11.70319 | 16735 ft | 349 kts | 81° |
| 2026-05-04 14:58 | 49.92426 | 11.74002 | 16691 ft | 350 kts | 81° |
| 2026-05-04 14:59 | 49.92852 | 11.77724 | 16639 ft | 352 kts | 81° |
| 2026-05-04 14:59 | 49.93275 | 11.81430 | 16601 ft | 353 kts | 81° |
| 2026-05-04 14:59 | 49.94125 | 11.88912 | 16519 ft | 352 kts | 81° |
| 2026-05-04 15:00 | 49.94528 | 11.92643 | 16471 ft | 353 kts | 83° |
| 2026-05-04 15:00 | 49.94608 | 11.96433 | 16414 ft | 353 kts | 93° |
| 2026-05-04 15:00 | 49.94525 | 12.00242 | 16380 ft | 352 kts | 94° |
| 2026-05-04 15:01 | 49.94349 | 12.07783 | 16303 ft | 351 kts | 94° |
| 2026-05-04 15:01 | 49.94261 | 12.11565 | 16263 ft | 351 kts | 93° |
| 2026-05-04 15:01 | 49.94175 | 12.15343 | 16226 ft | 351 kts | 93° |
| 2026-05-04 15:01 | 49.94089 | 12.19096 | 16188 ft | 350 kts | 94° |
| 2026-05-04 15:02 | 49.94002 | 12.22878 | 16147 ft | 351 kts | 94° |
| 2026-05-04 15:02 | 49.93916 | 12.26645 | 16112 ft | 351 kts | 94° |
| 2026-05-04 15:02 | 49.93828 | 12.30456 | 16080 ft | 349 kts | 93° |
| 2026-05-04 15:02 | 49.93741 | 12.34175 | 16039 ft | 350 kts | 94° |
| 2026-05-04 15:03 | 49.93644 | 12.37969 | 16006 ft | 350 kts | 94° |
| 2026-05-04 15:03 | 49.93537 | 12.41751 | 15981 ft | 351 kts | 94° |
| 2026-05-04 15:03 | 49.93430 | 12.45489 | 15940 ft | 350 kts | 94° |
| 2026-05-04 15:03 | 49.93322 | 12.49249 | 15904 ft | 350 kts | 94° |
| 2026-05-04 15:04 | 49.93211 | 12.53047 | 15874 ft | 351 kts | 94° |
| 2026-05-04 15:04 | 49.93101 | 12.56829 | 15845 ft | 352 kts | 94° |
| 2026-05-04 15:04 | 49.92989 | 12.60627 | 15821 ft | 353 kts | 94° |
| 2026-05-04 15:04 | 49.92876 | 12.64382 | 15799 ft | 352 kts | 94° |
| 2026-05-04 15:05 | 49.92763 | 12.68186 | 15769 ft | 351 kts | 95° |
| 2026-05-04 15:05 | 49.92649 | 12.71941 | 15739 ft | 351 kts | 95° |
| 2026-05-04 15:05 | 49.92532 | 12.75732 | 15704 ft | 350 kts | 95° |
| 2026-05-04 15:05 | 49.92416 | 12.79493 | 15660 ft | 350 kts | 95° |
| 2026-05-04 15:06 | 49.92298 | 12.83233 | 15635 ft | 350 kts | 95° |
| 2026-05-04 15:06 | 49.92178 | 12.87036 | 15604 ft | 351 kts | 94° |
| 2026-05-04 15:06 | 49.92060 | 12.90786 | 15571 ft | 352 kts | 95° |
| 2026-05-04 15:07 | 49.91818 | 12.98353 | 15518 ft | 351 kts | 94° |
| 2026-05-04 15:07 | 49.91696 | 13.02108 | 15488 ft | 351 kts | 94° |
| 2026-05-04 15:07 | 49.91572 | 13.05868 | 15465 ft | 351 kts | 94° |
| 2026-05-04 15:07 | 49.91446 | 13.09638 | 15436 ft | 351 kts | 94° |
| 2026-05-04 15:08 | 49.91318 | 13.13429 | 15407 ft | 351 kts | 94° |
| 2026-05-04 15:08 | 49.91192 | 13.17191 | 15368 ft | 347 kts | 94° |
| 2026-05-04 15:08 | 49.91064 | 13.20938 | 15314 ft | 345 kts | 94° |
| 2026-05-04 15:08 | 49.90938 | 13.24591 | 15256 ft | 342 kts | 95° |
| 2026-05-04 15:09 | 49.90808 | 13.28277 | 15200 ft | 341 kts | 95° |
| 2026-05-04 15:09 | 49.90680 | 13.31913 | 15144 ft | 341 kts | 95° |
| 2026-05-04 15:09 | 49.90548 | 13.35581 | 15093 ft | 339 kts | 95° |
| 2026-05-04 15:10 | 49.90285 | 13.42835 | 14980 ft | 339 kts | 94° |
| 2026-05-04 15:10 | 49.90238 | 13.46495 | 14902 ft | 341 kts | 86° |
| 2026-05-04 15:10 | 49.92400 | 13.52963 | 14701 ft | 342 kts | 52° |
| 2026-05-04 15:11 | 49.93845 | 13.55869 | 14652 ft | 342 kts | 51° |
| 2026-05-04 15:11 | 49.95309 | 13.58807 | 14602 ft | 343 kts | 51° |
| 2026-05-04 15:11 | 49.96749 | 13.61702 | 14552 ft | 343 kts | 51° |
| 2026-05-04 15:11 | 49.98199 | 13.64625 | 14499 ft | 341 kts | 51° |
| 2026-05-04 15:12 | 49.99634 | 13.67525 | 14437 ft | 340 kts | 52° |
| 2026-05-04 15:12 | 50.01084 | 13.70459 | 14372 ft | 340 kts | 52° |
| 2026-05-04 15:12 | 50.02506 | 13.73354 | 14309 ft | 340 kts | 53° |
| 2026-05-04 15:12 | 50.03620 | 13.76611 | 14155 ft | 341 kts | 72° |
| 2026-05-04 15:13 | 50.03937 | 13.80231 | 13841 ft | 340 kts | 94° |
| 2026-05-04 15:13 | 50.03436 | 13.83728 | 13489 ft | 338 kts | 114° |
| 2026-05-04 15:13 | 50.02174 | 13.86761 | 13119 ft | 333 kts | 134° |
| 2026-05-04 15:13 | 50.00523 | 13.89295 | 12758 ft | 332 kts | 139° |
| 2026-05-04 15:14 | 49.99055 | 13.92112 | 12404 ft | 337 kts | 127° |
| 2026-05-04 15:14 | 49.97764 | 13.95135 | 12029 ft | 339 kts | 126° |
| 2026-05-04 15:14 | 49.96476 | 13.98199 | 11653 ft | 338 kts | 126° |
| 2026-05-04 15:14 | 49.95222 | 14.01202 | 11288 ft | 336 kts | 126° |
| 2026-05-04 15:15 | 49.93954 | 14.04246 | 10939 ft | 336 kts | 126° |
| 2026-05-04 15:15 | 49.92726 | 14.07206 | 10877 ft | 311 kts | 126° |
| 2026-05-04 15:15 | 49.91584 | 14.09975 | 10868 ft | 307 kts | 126° |
| 2026-05-04 15:16 | 49.89241 | 14.15623 | 10443 ft | 315 kts | 126° |
| 2026-05-04 15:16 | 49.88061 | 14.18461 | 10082 ft | 313 kts | 126° |
| 2026-05-04 15:16 | 49.85711 | 14.24087 | 9347 ft | 310 kts | 125° |
| 2026-05-04 15:17 | 49.84541 | 14.26862 | 8976 ft | 308 kts | 125° |
| 2026-05-04 15:17 | 49.82315 | 14.32112 | 8671 ft | 274 kts | 125° |
| 2026-05-04 15:17 | 49.81298 | 14.34520 | 8250 ft | 265 kts | 125° |
| 2026-05-04 15:18 | 49.80296 | 14.36855 | 7831 ft | 258 kts | 125° |
| 2026-05-04 15:18 | 49.79311 | 14.39139 | 7329 ft | 255 kts | 125° |
| 2026-05-04 15:18 | 49.78327 | 14.41393 | 6771 ft | 252 kts | 125° |
| 2026-05-04 15:19 | 49.76385 | 14.45746 | 5796 ft | 243 kts | 125° |
| 2026-05-04 15:19 | 49.75424 | 14.47859 | 5483 ft | 230 kts | 125° |
| 2026-05-04 15:19 | 49.73695 | 14.51627 | 5578 ft | 223 kts | 126° |
| 2026-05-04 15:20 | 49.72775 | 14.53623 | 5586 ft | 239 kts | 126° |
| 2026-05-04 15:20 | 49.72014 | 14.55944 | 5580 ft | 251 kts | 104° |
| 2026-05-04 15:20 | 49.71991 | 14.58676 | 5597 ft | 260 kts | 82° |
| 2026-05-04 15:20 | 49.72286 | 14.61394 | 5534 ft | 247 kts | 78° |
| 2026-05-04 15:21 | 49.72961 | 14.63674 | 5409 ft | 226 kts | 49° |
| 2026-05-04 15:21 | 49.74266 | 14.64996 | 5375 ft | 230 kts | 18° |
| 2026-05-04 15:21 | 49.77497 | 14.64922 | 5265 ft | 241 kts | 351° |
| 2026-05-04 15:22 | 49.79174 | 14.64415 | 5159 ft | 244 kts | 348° |
| 2026-05-04 15:22 | 49.80799 | 14.63900 | 5030 ft | 238 kts | 348° |
| 2026-05-04 15:22 | 49.83963 | 14.62902 | 4772 ft | 227 kts | 348° |
| 2026-05-04 15:23 | 49.85502 | 14.62480 | 4764 ft | 223 kts | 351° |
| 2026-05-04 15:23 | 49.87062 | 14.62122 | 4780 ft | 225 kts | 351° |
| 2026-05-04 15:23 | 49.88603 | 14.61766 | 4787 ft | 227 kts | 351° |
| 2026-05-04 15:23 | 49.90171 | 14.61405 | 4783 ft | 228 kts | 351° |
| 2026-05-04 15:24 | 49.93160 | 14.60004 | 4778 ft | 228 kts | 316° |
| 2026-05-04 15:24 | 49.95155 | 14.56412 | 4814 ft | 212 kts | 311° |
| 2026-05-04 15:25 | 49.96076 | 14.54664 | 4796 ft | 211 kts | 307° |
| 2026-05-04 15:25 | 49.96991 | 14.52837 | 4664 ft | 211 kts | 308° |
| 2026-05-04 15:25 | 49.97861 | 14.51095 | 4702 ft | 197 kts | 307° |
| 2026-05-04 15:26 | 49.99514 | 14.47735 | 4279 ft | 199 kts | 307° |
| 2026-05-04 15:26 | 50.00336 | 14.46055 | 3972 ft | 191 kts | 307° |
| 2026-05-04 15:26 | 50.01865 | 14.42919 | 3445 ft | 174 kts | 308° |
| 2026-05-04 15:27 | 50.02578 | 14.41455 | 3221 ft | 167 kts | 308° |
| 2026-05-04 15:27 | 50.03940 | 14.38668 | 2825 ft | 158 kts | 308° |
| 2026-05-04 15:28 | 50.05226 | 14.36025 | 2436 ft | 148 kts | 308° |
| 2026-05-04 15:28 | 50.05830 | 14.34783 | 2252 ft | 144 kts | 308° |
| 2026-05-04 15:28 | 50.07014 | 14.32350 | 1895 ft | 136 kts | 307° |
| 2026-05-04 15:29 | 50.07570 | 14.31204 | 1728 ft | 131 kts | 307° |
| 2026-05-04 15:30 | 50.09599 | 14.27031 | 1213 ft | 85 kts | 308° |
| 2026-05-04 15:30 | 50.09898 | 14.26878 | 1204 ft | 11 kts | 85° |
| 2026-05-04 15:31 | 50.09938 | 14.27129 | 1201 ft | 13 kts | 347° |
| 2026-05-04 15:31 | 50.10052 | 14.26920 | 1200 ft | 37 kts | 308° |
| 2026-05-04 15:32 | 50.10391 | 14.26609 | 1192 ft | 4 kts | 20° |
| 2026-05-04 15:32 | 50.10410 | 14.26629 | 1192 ft | 0 kts | 37° |
| 2026-05-04 15:33 | 50.10412 | 14.26631 | 1192 ft | 0 kts | 37° |